sensor_id;sensor_type;location;lat;lon;timestamp;P1;durP1;ratioP1;P2;durP2;ratioP2
49626;SDS011;35527;54.616;39.786;2022-09-09T00:01:37;4.70;;;2.17;;
49626;SDS011;35527;54.616;39.786;2022-09-09T00:08:22;4.38;;;1.90;;
49626;SDS011;35527;54.616;39.786;2022-09-09T00:18:05;3.47;;;1.63;;
49626;SDS011;35527;54.616;39.786;2022-09-09T00:21:21;3.95;;;1.90;;
49626;SDS011;35527;54.616;39.786;2022-09-09T00:24:43;4.53;;;2.10;;
49626;SDS011;35527;54.616;39.786;2022-09-09T00:27:54;4.72;;;2.08;;
49626;SDS011;35527;54.616;39.786;2022-09-09T00:30:57;4.35;;;2.20;;
49626;SDS011;35527;54.616;39.786;2022-09-09T00:37:33;4.43;;;2.40;;
49626;SDS011;35527;54.616;39.786;2022-09-09T00:40:39;4.45;;;2.08;;
49626;SDS011;35527;54.616;39.786;2022-09-09T00:44:02;5.82;;;2.00;;
49626;SDS011;35527;54.616;39.786;2022-09-09T00:47:16;3.05;;;1.58;;
49626;SDS011;35527;54.616;39.786;2022-09-09T00:54:03;4.82;;;2.10;;
49626;SDS011;35527;54.616;39.786;2022-09-09T00:57:35;5.63;;;2.70;;
49626;SDS011;35527;54.616;39.786;2022-09-09T01:00:44;3.83;;;1.90;;
49626;SDS011;35527;54.616;39.786;2022-09-09T01:03:54;3.45;;;1.80;;
49626;SDS011;35527;54.616;39.786;2022-09-09T01:07:14;3.05;;;1.40;;
49626;SDS011;35527;54.616;39.786;2022-09-09T01:10:26;4.55;;;2.17;;
49626;SDS011;35527;54.616;39.786;2022-09-09T01:13:41;3.65;;;1.55;;
49626;SDS011;35527;54.616;39.786;2022-09-09T01:16:51;3.40;;;1.50;;
49626;SDS011;35527;54.616;39.786;2022-09-09T01:20:36;2.83;;;1.50;;
49626;SDS011;35527;54.616;39.786;2022-09-09T01:27:05;4.22;;;1.88;;
49626;SDS011;35527;54.616;39.786;2022-09-09T01:30:12;3.80;;;1.77;;
49626;SDS011;35527;54.616;39.786;2022-09-09T01:33:18;2.33;;;1.48;;
49626;SDS011;35527;54.616;39.786;2022-09-09T01:39:41;3.13;;;1.70;;
49626;SDS011;35527;54.616;39.786;2022-09-09T01:42:49;3.33;;;1.52;;
49626;SDS011;35527;54.616;39.786;2022-09-09T01:45:53;4.43;;;1.70;;
49626;SDS011;35527;54.616;39.786;2022-09-09T01:49:02;4.85;;;2.40;;
49626;SDS011;35527;54.616;39.786;2022-09-09T01:52:08;3.72;;;1.80;;
49626;SDS011;35527;54.616;39.786;2022-09-09T01:55:13;2.97;;;1.47;;
49626;SDS011;35527;54.616;39.786;2022-09-09T02:04:48;3.40;;;1.70;;
49626;SDS011;35527;54.616;39.786;2022-09-09T02:08:25;5.57;;;2.55;;
49626;SDS011;35527;54.616;39.786;2022-09-09T02:11:40;5.35;;;1.65;;
49626;SDS011;35527;54.616;39.786;2022-09-09T02:14:56;4.68;;;1.60;;
49626;SDS011;35527;54.616;39.786;2022-09-09T02:18:17;2.50;;;1.40;;
49626;SDS011;35527;54.616;39.786;2022-09-09T02:21:28;3.45;;;1.52;;
49626;SDS011;35527;54.616;39.786;2022-09-09T02:24:59;4.20;;;1.83;;
49626;SDS011;35527;54.616;39.786;2022-09-09T02:28:06;3.97;;;1.52;;
49626;SDS011;35527;54.616;39.786;2022-09-09T02:31:13;3.13;;;1.40;;
49626;SDS011;35527;54.616;39.786;2022-09-09T02:34:26;3.47;;;1.67;;
49626;SDS011;35527;54.616;39.786;2022-09-09T02:37:37;3.50;;;1.85;;
49626;SDS011;35527;54.616;39.786;2022-09-09T02:40:42;3.80;;;1.65;;
49626;SDS011;35527;54.616;39.786;2022-09-09T02:43:45;4.50;;;2.13;;
49626;SDS011;35527;54.616;39.786;2022-09-09T02:47:34;2.95;;;1.65;;
49626;SDS011;35527;54.616;39.786;2022-09-09T02:54:33;3.65;;;1.80;;
49626;SDS011;35527;54.616;39.786;2022-09-09T02:57:14;3.72;;;1.65;;
49626;SDS011;35527;54.616;39.786;2022-09-09T03:00:24;3.13;;;1.65;;
49626;SDS011;35527;54.616;39.786;2022-09-09T03:03:35;2.65;;;1.40;;
49626;SDS011;35527;54.616;39.786;2022-09-09T03:06:43;4.05;;;2.42;;
49626;SDS011;35527;54.616;39.786;2022-09-09T03:09:53;4.40;;;2.65;;
49626;SDS011;35527;54.616;39.786;2022-09-09T03:13:26;3.90;;;1.73;;
49626;SDS011;35527;54.616;39.786;2022-09-09T03:16:29;4.82;;;1.85;;
49626;SDS011;35527;54.616;39.786;2022-09-09T03:19:35;5.03;;;2.28;;
49626;SDS011;35527;54.616;39.786;2022-09-09T03:22:42;4.07;;;1.60;;
49626;SDS011;35527;54.616;39.786;2022-09-09T03:25:51;3.85;;;1.65;;
49626;SDS011;35527;54.616;39.786;2022-09-09T03:29:03;3.42;;;1.60;;
49626;SDS011;35527;54.616;39.786;2022-09-09T03:32:09;3.33;;;1.65;;
49626;SDS011;35527;54.616;39.786;2022-09-09T03:35:14;4.47;;;2.35;;
49626;SDS011;35527;54.616;39.786;2022-09-09T03:38:18;3.63;;;1.60;;
49626;SDS011;35527;54.616;39.786;2022-09-09T03:41:23;3.10;;;1.58;;
49626;SDS011;35527;54.616;39.786;2022-09-09T03:44:31;4.30;;;1.55;;
49626;SDS011;35527;54.616;39.786;2022-09-09T03:47:35;3.95;;;1.95;;
49626;SDS011;35527;54.616;39.786;2022-09-09T03:50:44;4.03;;;2.05;;
49626;SDS011;35527;54.616;39.786;2022-09-09T03:53:52;3.70;;;1.67;;
49626;SDS011;35527;54.616;39.786;2022-09-09T03:56:58;3.85;;;1.92;;
49626;SDS011;35527;54.616;39.786;2022-09-09T04:00:05;3.67;;;2.38;;
49626;SDS011;35527;54.616;39.786;2022-09-09T04:03:18;4.28;;;1.75;;
49626;SDS011;35527;54.616;39.786;2022-09-09T04:06:23;2.65;;;1.40;;
49626;SDS011;35527;54.616;39.786;2022-09-09T04:09:27;4.13;;;2.10;;
49626;SDS011;35527;54.616;39.786;2022-09-09T04:15:36;3.83;;;1.85;;
49626;SDS011;35527;54.616;39.786;2022-09-09T04:22:17;4.85;;;2.10;;
49626;SDS011;35527;54.616;39.786;2022-09-09T04:25:25;3.58;;;1.38;;
49626;SDS011;35527;54.616;39.786;2022-09-09T04:28:29;4.70;;;2.40;;
49626;SDS011;35527;54.616;39.786;2022-09-09T04:31:34;5.63;;;2.20;;
49626;SDS011;35527;54.616;39.786;2022-09-09T04:34:38;4.95;;;2.25;;
49626;SDS011;35527;54.616;39.786;2022-09-09T04:37:44;5.03;;;1.95;;
49626;SDS011;35527;54.616;39.786;2022-09-09T04:40:50;3.17;;;1.60;;
49626;SDS011;35527;54.616;39.786;2022-09-09T04:43:58;3.70;;;2.00;;
49626;SDS011;35527;54.616;39.786;2022-09-09T04:47:04;3.38;;;1.48;;
49626;SDS011;35527;54.616;39.786;2022-09-09T04:50:08;4.47;;;1.65;;
49626;SDS011;35527;54.616;39.786;2022-09-09T04:53:11;2.60;;;1.30;;
49626;SDS011;35527;54.616;39.786;2022-09-09T04:56:17;4.00;;;1.70;;
49626;SDS011;35527;54.616;39.786;2022-09-09T04:59:30;2.90;;;1.27;;
49626;SDS011;35527;54.616;39.786;2022-09-09T05:02:38;3.85;;;1.85;;
49626;SDS011;35527;54.616;39.786;2022-09-09T05:05:41;3.40;;;1.42;;
49626;SDS011;35527;54.616;39.786;2022-09-09T05:11:58;3.60;;;1.50;;
49626;SDS011;35527;54.616;39.786;2022-09-09T05:15:09;3.35;;;1.67;;
49626;SDS011;35527;54.616;39.786;2022-09-09T05:18:14;4.05;;;1.73;;
49626;SDS011;35527;54.616;39.786;2022-09-09T05:21:21;4.00;;;1.95;;
49626;SDS011;35527;54.616;39.786;2022-09-09T05:24:27;4.80;;;1.27;;
49626;SDS011;35527;54.616;39.786;2022-09-09T05:27:38;4.00;;;1.80;;
49626;SDS011;35527;54.616;39.786;2022-09-09T05:30:43;3.80;;;1.60;;
49626;SDS011;35527;54.616;39.786;2022-09-09T05:33:48;5.05;;;2.00;;
49626;SDS011;35527;54.616;39.786;2022-09-09T05:36:52;1.90;;;1.15;;
49626;SDS011;35527;54.616;39.786;2022-09-09T05:39:59;1.88;;;1.23;;
49626;SDS011;35527;54.616;39.786;2022-09-09T05:43:03;3.58;;;1.50;;
49626;SDS011;35527;54.616;39.786;2022-09-09T05:46:10;3.72;;;1.70;;
49626;SDS011;35527;54.616;39.786;2022-09-09T05:49:16;2.13;;;1.15;;
49626;SDS011;35527;54.616;39.786;2022-09-09T05:52:20;3.47;;;1.42;;
49626;SDS011;35527;54.616;39.786;2022-09-09T05:55:23;3.13;;;1.50;;
49626;SDS011;35527;54.616;39.786;2022-09-09T05:58:28;5.20;;;1.53;;
49626;SDS011;35527;54.616;39.786;2022-09-09T06:01:33;3.80;;;1.40;;
49626;SDS011;35527;54.616;39.786;2022-09-09T06:04:38;4.63;;;1.50;;
49626;SDS011;35527;54.616;39.786;2022-09-09T06:07:42;3.85;;;1.60;;
49626;SDS011;35527;54.616;39.786;2022-09-09T06:10:48;6.10;;;1.70;;
49626;SDS011;35527;54.616;39.786;2022-09-09T06:13:52;3.70;;;1.30;;
49626;SDS011;35527;54.616;39.786;2022-09-09T06:16:56;4.13;;;1.33;;
49626;SDS011;35527;54.616;39.786;2022-09-09T06:20:04;4.85;;;1.35;;
49626;SDS011;35527;54.616;39.786;2022-09-09T06:23:08;5.50;;;1.35;;
49626;SDS011;35527;54.616;39.786;2022-09-09T06:26:18;3.63;;;1.08;;
49626;SDS011;35527;54.616;39.786;2022-09-09T06:29:25;2.65;;;1.00;;
49626;SDS011;35527;54.616;39.786;2022-09-09T06:32:29;2.40;;;0.82;;
49626;SDS011;35527;54.616;39.786;2022-09-09T06:35:34;1.77;;;1.05;;
49626;SDS011;35527;54.616;39.786;2022-09-09T06:38:44;3.85;;;1.10;;
49626;SDS011;35527;54.616;39.786;2022-09-09T06:41:49;2.13;;;1.10;;
49626;SDS011;35527;54.616;39.786;2022-09-09T06:45:33;2.70;;;1.00;;
49626;SDS011;35527;54.616;39.786;2022-09-09T06:48:40;1.98;;;0.98;;
49626;SDS011;35527;54.616;39.786;2022-09-09T06:51:52;3.80;;;1.08;;
49626;SDS011;35527;54.616;39.786;2022-09-09T06:54:56;2.58;;;1.10;;
49626;SDS011;35527;54.616;39.786;2022-09-09T06:58:01;3.33;;;1.08;;
49626;SDS011;35527;54.616;39.786;2022-09-09T07:01:05;3.13;;;1.13;;
49626;SDS011;35527;54.616;39.786;2022-09-09T07:04:12;1.83;;;0.93;;
49626;SDS011;35527;54.616;39.786;2022-09-09T07:07:19;2.67;;;0.90;;
49626;SDS011;35527;54.616;39.786;2022-09-09T07:10:27;4.55;;;1.20;;
49626;SDS011;35527;54.616;39.786;2022-09-09T07:13:30;3.95;;;1.00;;
49626;SDS011;35527;54.616;39.786;2022-09-09T07:16:35;2.60;;;0.98;;
49626;SDS011;35527;54.616;39.786;2022-09-09T07:19:40;3.97;;;0.90;;
49626;SDS011;35527;54.616;39.786;2022-09-09T07:22:45;3.10;;;0.88;;
49626;SDS011;35527;54.616;39.786;2022-09-09T07:25:51;4.15;;;1.15;;
49626;SDS011;35527;54.616;39.786;2022-09-09T07:28:58;4.32;;;1.75;;
49626;SDS011;35527;54.616;39.786;2022-09-09T07:32:03;3.58;;;0.75;;
49626;SDS011;35527;54.616;39.786;2022-09-09T07:35:10;1.23;;;0.65;;
49626;SDS011;35527;54.616;39.786;2022-09-09T07:38:16;2.30;;;0.90;;
49626;SDS011;35527;54.616;39.786;2022-09-09T07:44:33;1.77;;;0.55;;
49626;SDS011;35527;54.616;39.786;2022-09-09T07:47:42;2.35;;;1.30;;
49626;SDS011;35527;54.616;39.786;2022-09-09T07:50:50;1.60;;;0.80;;
49626;SDS011;35527;54.616;39.786;2022-09-09T07:53:57;0.50;;;0.43;;
49626;SDS011;35527;54.616;39.786;2022-09-09T07:57:09;1.55;;;0.45;;
49626;SDS011;35527;54.616;39.786;2022-09-09T08:00:12;3.33;;;0.70;;
49626;SDS011;35527;54.616;39.786;2022-09-09T08:03:25;2.40;;;0.55;;
49626;SDS011;35527;54.616;39.786;2022-09-09T08:06:35;1.38;;;0.50;;
49626;SDS011;35527;54.616;39.786;2022-09-09T08:09:47;0.95;;;0.45;;
49626;SDS011;35527;54.616;39.786;2022-09-09T08:12:55;1.63;;;0.68;;
49626;SDS011;35527;54.616;39.786;2022-09-09T08:16:15;2.05;;;1.10;;
49626;SDS011;35527;54.616;39.786;2022-09-09T08:19:20;2.45;;;1.35;;
49626;SDS011;35527;54.616;39.786;2022-09-09T08:22:23;3.65;;;1.05;;
49626;SDS011;35527;54.616;39.786;2022-09-09T08:25:27;2.07;;;0.90;;
49626;SDS011;35527;54.616;39.786;2022-09-09T08:28:32;1.17;;;0.60;;
49626;SDS011;35527;54.616;39.786;2022-09-09T08:31:37;3.95;;;0.75;;
49626;SDS011;35527;54.616;39.786;2022-09-09T08:34:42;4.88;;;0.90;;
49626;SDS011;35527;54.616;39.786;2022-09-09T08:37:53;1.27;;;0.80;;
49626;SDS011;35527;54.616;39.786;2022-09-09T08:41:03;1.65;;;0.60;;
49626;SDS011;35527;54.616;39.786;2022-09-09T08:50:38;2.60;;;0.70;;
49626;SDS011;35527;54.616;39.786;2022-09-09T08:53:58;1.60;;;0.85;;
49626;SDS011;35527;54.616;39.786;2022-09-09T08:57:14;1.98;;;0.75;;
49626;SDS011;35527;54.616;39.786;2022-09-09T09:00:22;0.65;;;0.47;;
49626;SDS011;35527;54.616;39.786;2022-09-09T09:06:47;0.85;;;0.50;;
49626;SDS011;35527;54.616;39.786;2022-09-09T09:13:50;0.80;;;0.50;;
49626;SDS011;35527;54.616;39.786;2022-09-09T09:17:04;2.47;;;0.60;;
49626;SDS011;35527;54.616;39.786;2022-09-09T09:20:12;1.98;;;0.55;;
49626;SDS011;35527;54.616;39.786;2022-09-09T09:23:24;1.20;;;0.60;;
49626;SDS011;35527;54.616;39.786;2022-09-09T09:26:35;2.00;;;0.50;;
49626;SDS011;35527;54.616;39.786;2022-09-09T09:29:45;2.17;;;0.60;;
49626;SDS011;35527;54.616;39.786;2022-09-09T09:33:10;1.90;;;0.80;;
49626;SDS011;35527;54.616;39.786;2022-09-09T09:40:07;1.13;;;0.52;;
49626;SDS011;35527;54.616;39.786;2022-09-09T09:43:17;1.08;;;0.60;;
49626;SDS011;35527;54.616;39.786;2022-09-09T09:46:27;0.90;;;0.60;;
49626;SDS011;35527;54.616;39.786;2022-09-09T09:49:58;1.52;;;0.70;;
49626;SDS011;35527;54.616;39.786;2022-09-09T09:53:25;3.78;;;0.50;;
49626;SDS011;35527;54.616;39.786;2022-09-09T09:56:37;1.08;;;0.60;;
49626;SDS011;35527;54.616;39.786;2022-09-09T09:59:43;0.55;;;0.40;;
49626;SDS011;35527;54.616;39.786;2022-09-09T10:02:59;0.83;;;0.40;;
49626;SDS011;35527;54.616;39.786;2022-09-09T10:06:08;1.98;;;0.75;;
49626;SDS011;35527;54.616;39.786;2022-09-09T10:09:45;3.50;;;0.63;;
49626;SDS011;35527;54.616;39.786;2022-09-09T10:12:46;1.60;;;0.47;;
49626;SDS011;35527;54.616;39.786;2022-09-09T10:16:25;2.40;;;0.68;;
49626;SDS011;35527;54.616;39.786;2022-09-09T10:19:37;3.80;;;0.80;;
49626;SDS011;35527;54.616;39.786;2022-09-09T10:22:47;1.23;;;0.57;;
49626;SDS011;35527;54.616;39.786;2022-09-09T10:35:58;4.93;;;0.70;;
49626;SDS011;35527;54.616;39.786;2022-09-09T10:39:23;2.03;;;0.70;;
49626;SDS011;35527;54.616;39.786;2022-09-09T10:45:49;2.88;;;0.90;;
49626;SDS011;35527;54.616;39.786;2022-09-09T10:55:51;0.85;;;0.40;;
49626;SDS011;35527;54.616;39.786;2022-09-09T10:59:20;0.60;;;0.45;;
49626;SDS011;35527;54.616;39.786;2022-09-09T11:02:29;2.55;;;0.50;;
49626;SDS011;35527;54.616;39.786;2022-09-09T11:05:42;0.85;;;0.50;;
49626;SDS011;35527;54.616;39.786;2022-09-09T11:08:50;1.45;;;0.52;;
49626;SDS011;35527;54.616;39.786;2022-09-09T11:11:57;1.45;;;0.52;;
49626;SDS011;35527;54.616;39.786;2022-09-09T11:15:14;1.67;;;0.77;;
49626;SDS011;35527;54.616;39.786;2022-09-09T11:18:37;2.25;;;0.60;;
49626;SDS011;35527;54.616;39.786;2022-09-09T11:21:46;1.65;;;0.50;;
49626;SDS011;35527;54.616;39.786;2022-09-09T11:24:56;0.80;;;0.40;;
49626;SDS011;35527;54.616;39.786;2022-09-09T11:34:45;1.67;;;0.40;;
49626;SDS011;35527;54.616;39.786;2022-09-09T11:38:41;1.17;;;0.47;;
49626;SDS011;35527;54.616;39.786;2022-09-09T11:41:35;5.07;;;0.68;;
49626;SDS011;35527;54.616;39.786;2022-09-09T11:44:43;5.22;;;0.77;;
49626;SDS011;35527;54.616;39.786;2022-09-09T11:47:53;1.95;;;0.57;;
49626;SDS011;35527;54.616;39.786;2022-09-09T11:51:01;1.75;;;0.52;;
49626;SDS011;35527;54.616;39.786;2022-09-09T11:54:29;1.75;;;0.80;;
49626;SDS011;35527;54.616;39.786;2022-09-09T11:57:41;2.08;;;0.60;;
49626;SDS011;35527;54.616;39.786;2022-09-09T12:00:52;0.95;;;0.40;;
49626;SDS011;35527;54.616;39.786;2022-09-09T12:04:01;1.77;;;0.57;;
49626;SDS011;35527;54.616;39.786;2022-09-09T12:13:29;1.25;;;0.60;;
49626;SDS011;35527;54.616;39.786;2022-09-09T12:16:37;1.25;;;0.55;;
49626;SDS011;35527;54.616;39.786;2022-09-09T12:19:43;1.20;;;0.43;;
49626;SDS011;35527;54.616;39.786;2022-09-09T12:29:24;2.10;;;0.60;;
49626;SDS011;35527;54.616;39.786;2022-09-09T12:32:35;2.33;;;1.10;;
49626;SDS011;35527;54.616;39.786;2022-09-09T12:35:38;2.83;;;1.10;;
49626;SDS011;35527;54.616;39.786;2022-09-09T12:38:45;2.92;;;1.00;;
49626;SDS011;35527;54.616;39.786;2022-09-09T12:41:51;1.75;;;0.75;;
49626;SDS011;35527;54.616;39.786;2022-09-09T12:45:01;5.28;;;0.90;;
49626;SDS011;35527;54.616;39.786;2022-09-09T12:51:44;3.05;;;0.50;;
49626;SDS011;35527;54.616;39.786;2022-09-09T12:54:42;1.15;;;0.60;;
49626;SDS011;35527;54.616;39.786;2022-09-09T12:57:54;0.75;;;0.40;;
49626;SDS011;35527;54.616;39.786;2022-09-09T13:00:59;2.05;;;0.90;;
49626;SDS011;35527;54.616;39.786;2022-09-09T13:04:19;2.78;;;0.50;;
49626;SDS011;35527;54.616;39.786;2022-09-09T13:10:29;1.08;;;0.50;;
49626;SDS011;35527;54.616;39.786;2022-09-09T13:13:39;3.22;;;0.80;;
49626;SDS011;35527;54.616;39.786;2022-09-09T13:16:53;2.10;;;0.60;;
49626;SDS011;35527;54.616;39.786;2022-09-09T13:20:02;1.63;;;0.77;;
49626;SDS011;35527;54.616;39.786;2022-09-09T13:23:08;1.88;;;0.47;;
49626;SDS011;35527;54.616;39.786;2022-09-09T13:26:25;1.83;;;0.75;;
49626;SDS011;35527;54.616;39.786;2022-09-09T13:29:33;1.63;;;0.70;;
49626;SDS011;35527;54.616;39.786;2022-09-09T13:32:37;2.55;;;0.65;;
49626;SDS011;35527;54.616;39.786;2022-09-09T13:35:47;0.93;;;0.50;;
49626;SDS011;35527;54.616;39.786;2022-09-09T13:38:55;1.98;;;0.70;;
49626;SDS011;35527;54.616;39.786;2022-09-09T13:42:00;1.80;;;1.10;;
49626;SDS011;35527;54.616;39.786;2022-09-09T13:45:05;3.58;;;1.48;;
49626;SDS011;35527;54.616;39.786;2022-09-09T13:48:17;4.25;;;1.17;;
49626;SDS011;35527;54.616;39.786;2022-09-09T13:51:35;1.55;;;0.70;;
49626;SDS011;35527;54.616;39.786;2022-09-09T13:54:47;3.38;;;0.70;;
49626;SDS011;35527;54.616;39.786;2022-09-09T13:57:54;0.77;;;0.50;;
49626;SDS011;35527;54.616;39.786;2022-09-09T14:01:06;3.33;;;0.90;;
49626;SDS011;35527;54.616;39.786;2022-09-09T14:04:10;1.40;;;0.60;;
49626;SDS011;35527;54.616;39.786;2022-09-09T14:07:14;2.67;;;0.80;;
49626;SDS011;35527;54.616;39.786;2022-09-09T14:10:19;1.35;;;0.60;;
49626;SDS011;35527;54.616;39.786;2022-09-09T14:13:25;3.15;;;0.73;;
49626;SDS011;35527;54.616;39.786;2022-09-09T14:16:28;1.77;;;0.60;;
49626;SDS011;35527;54.616;39.786;2022-09-09T14:19:34;4.30;;;1.30;;
49626;SDS011;35527;54.616;39.786;2022-09-09T14:22:37;1.98;;;0.80;;
49626;SDS011;35527;54.616;39.786;2022-09-09T14:25:43;3.25;;;0.60;;
49626;SDS011;35527;54.616;39.786;2022-09-09T14:28:47;1.77;;;0.65;;
49626;SDS011;35527;54.616;39.786;2022-09-09T14:31:55;2.15;;;0.70;;
49626;SDS011;35527;54.616;39.786;2022-09-09T14:34:59;1.35;;;0.80;;
49626;SDS011;35527;54.616;39.786;2022-09-09T14:38:04;2.58;;;0.80;;
49626;SDS011;35527;54.616;39.786;2022-09-09T14:41:09;3.40;;;0.90;;
49626;SDS011;35527;54.616;39.786;2022-09-09T14:44:14;1.38;;;0.60;;
49626;SDS011;35527;54.616;39.786;2022-09-09T14:47:18;1.92;;;0.80;;
49626;SDS011;35527;54.616;39.786;2022-09-09T14:50:22;2.83;;;0.70;;
49626;SDS011;35527;54.616;39.786;2022-09-09T14:53:26;1.55;;;0.60;;
49626;SDS011;35527;54.616;39.786;2022-09-09T14:56:31;3.05;;;0.88;;
49626;SDS011;35527;54.616;39.786;2022-09-09T14:59:36;2.22;;;0.65;;
49626;SDS011;35527;54.616;39.786;2022-09-09T15:02:42;2.78;;;0.90;;
49626;SDS011;35527;54.616;39.786;2022-09-09T15:05:45;1.75;;;0.70;;
49626;SDS011;35527;54.616;39.786;2022-09-09T15:08:49;1.80;;;0.73;;
49626;SDS011;35527;54.616;39.786;2022-09-09T15:11:53;4.47;;;0.80;;
49626;SDS011;35527;54.616;39.786;2022-09-09T15:14:58;5.35;;;0.90;;
49626;SDS011;35527;54.616;39.786;2022-09-09T15:18:02;3.35;;;1.13;;
49626;SDS011;35527;54.616;39.786;2022-09-09T15:21:10;2.60;;;0.90;;
49626;SDS011;35527;54.616;39.786;2022-09-09T15:24:23;3.60;;;1.33;;
49626;SDS011;35527;54.616;39.786;2022-09-09T15:27:28;6.18;;;1.60;;
49626;SDS011;35527;54.616;39.786;2022-09-09T15:30:34;5.32;;;1.40;;
49626;SDS011;35527;54.616;39.786;2022-09-09T15:33:37;7.07;;;1.83;;
49626;SDS011;35527;54.616;39.786;2022-09-09T15:36:43;7.40;;;2.10;;
49626;SDS011;35527;54.616;39.786;2022-09-09T15:39:51;5.68;;;2.17;;
49626;SDS011;35527;54.616;39.786;2022-09-09T15:42:55;6.38;;;2.00;;
49626;SDS011;35527;54.616;39.786;2022-09-09T15:45:59;5.20;;;2.10;;
49626;SDS011;35527;54.616;39.786;2022-09-09T15:49:25;5.05;;;1.90;;
49626;SDS011;35527;54.616;39.786;2022-09-09T15:52:31;4.43;;;1.45;;
49626;SDS011;35527;54.616;39.786;2022-09-09T15:55:36;5.28;;;1.88;;
49626;SDS011;35527;54.616;39.786;2022-09-09T15:58:39;6.00;;;1.73;;
49626;SDS011;35527;54.616;39.786;2022-09-09T16:01:42;9.40;;;2.08;;
49626;SDS011;35527;54.616;39.786;2022-09-09T16:04:48;4.95;;;1.50;;
49626;SDS011;35527;54.616;39.786;2022-09-09T16:07:52;5.40;;;1.50;;
49626;SDS011;35527;54.616;39.786;2022-09-09T16:10:54;5.20;;;1.40;;
49626;SDS011;35527;54.616;39.786;2022-09-09T16:13:57;5.20;;;1.50;;
49626;SDS011;35527;54.616;39.786;2022-09-09T16:17:02;3.47;;;1.50;;
49626;SDS011;35527;54.616;39.786;2022-09-09T16:20:08;4.72;;;1.50;;
49626;SDS011;35527;54.616;39.786;2022-09-09T16:23:12;4.97;;;1.40;;
49626;SDS011;35527;54.616;39.786;2022-09-09T16:26:16;5.90;;;2.05;;
49626;SDS011;35527;54.616;39.786;2022-09-09T16:29:21;6.38;;;2.10;;
49626;SDS011;35527;54.616;39.786;2022-09-09T16:32:26;5.43;;;2.17;;
49626;SDS011;35527;54.616;39.786;2022-09-09T16:35:28;7.57;;;2.63;;
49626;SDS011;35527;54.616;39.786;2022-09-09T16:38:37;6.65;;;2.38;;
49626;SDS011;35527;54.616;39.786;2022-09-09T16:41:41;4.70;;;2.13;;
49626;SDS011;35527;54.616;39.786;2022-09-09T16:44:47;7.77;;;2.20;;
49626;SDS011;35527;54.616;39.786;2022-09-09T16:47:53;6.22;;;2.05;;
49626;SDS011;35527;54.616;39.786;2022-09-09T16:51:04;3.75;;;1.75;;
49626;SDS011;35527;54.616;39.786;2022-09-09T16:54:11;3.95;;;1.63;;
49626;SDS011;35527;54.616;39.786;2022-09-09T16:57:20;5.78;;;2.58;;
49626;SDS011;35527;54.616;39.786;2022-09-09T17:00:24;6.82;;;2.33;;
49626;SDS011;35527;54.616;39.786;2022-09-09T17:03:26;5.30;;;2.20;;
49626;SDS011;35527;54.616;39.786;2022-09-09T17:06:30;6.63;;;2.13;;
49626;SDS011;35527;54.616;39.786;2022-09-09T17:09:41;7.95;;;2.40;;
49626;SDS011;35527;54.616;39.786;2022-09-09T17:12:44;5.13;;;1.30;;
49626;SDS011;35527;54.616;39.786;2022-09-09T17:15:48;7.65;;;2.22;;
49626;SDS011;35527;54.616;39.786;2022-09-09T17:18:53;4.50;;;1.80;;
49626;SDS011;35527;54.616;39.786;2022-09-09T17:22:01;3.80;;;1.50;;
49626;SDS011;35527;54.616;39.786;2022-09-09T17:25:23;5.13;;;2.25;;
49626;SDS011;35527;54.616;39.786;2022-09-09T17:28:27;5.85;;;2.30;;
49626;SDS011;35527;54.616;39.786;2022-09-09T17:31:33;6.03;;;2.72;;
49626;SDS011;35527;54.616;39.786;2022-09-09T17:34:37;6.47;;;2.30;;
49626;SDS011;35527;54.616;39.786;2022-09-09T17:37:40;8.52;;;2.97;;
49626;SDS011;35527;54.616;39.786;2022-09-09T17:40:46;6.03;;;1.80;;
49626;SDS011;35527;54.616;39.786;2022-09-09T17:43:52;8.15;;;2.13;;
49626;SDS011;35527;54.616;39.786;2022-09-09T17:46:57;8.80;;;3.40;;
49626;SDS011;35527;54.616;39.786;2022-09-09T17:50:02;8.98;;;4.05;;
49626;SDS011;35527;54.616;39.786;2022-09-09T17:53:05;6.75;;;2.67;;
49626;SDS011;35527;54.616;39.786;2022-09-09T17:56:15;9.82;;;4.10;;
49626;SDS011;35527;54.616;39.786;2022-09-09T17:59:20;7.80;;;3.10;;
49626;SDS011;35527;54.616;39.786;2022-09-09T18:02:23;9.70;;;3.57;;
49626;SDS011;35527;54.616;39.786;2022-09-09T18:05:27;7.68;;;3.20;;
49626;SDS011;35527;54.616;39.786;2022-09-09T18:08:36;10.02;;;4.47;;
49626;SDS011;35527;54.616;39.786;2022-09-09T18:11:44;9.60;;;3.40;;
49626;SDS011;35527;54.616;39.786;2022-09-09T18:14:49;10.35;;;4.57;;
49626;SDS011;35527;54.616;39.786;2022-09-09T18:17:54;10.82;;;5.28;;
49626;SDS011;35527;54.616;39.786;2022-09-09T18:21:00;9.90;;;5.22;;
49626;SDS011;35527;54.616;39.786;2022-09-09T18:24:06;13.10;;;5.80;;
49626;SDS011;35527;54.616;39.786;2022-09-09T18:27:10;14.15;;;5.50;;
49626;SDS011;35527;54.616;39.786;2022-09-09T18:30:14;16.70;;;5.50;;
49626;SDS011;35527;54.616;39.786;2022-09-09T18:33:21;13.23;;;5.25;;
49626;SDS011;35527;54.616;39.786;2022-09-09T18:36:25;11.82;;;4.80;;
49626;SDS011;35527;54.616;39.786;2022-09-09T18:39:30;6.43;;;2.97;;
49626;SDS011;35527;54.616;39.786;2022-09-09T18:42:33;10.20;;;4.38;;
49626;SDS011;35527;54.616;39.786;2022-09-09T18:45:36;8.15;;;2.90;;
49626;SDS011;35527;54.616;39.786;2022-09-09T18:48:42;5.95;;;2.85;;
49626;SDS011;35527;54.616;39.786;2022-09-09T18:51:49;7.07;;;3.15;;
49626;SDS011;35527;54.616;39.786;2022-09-09T18:54:52;8.18;;;3.47;;
49626;SDS011;35527;54.616;39.786;2022-09-09T18:57:56;10.60;;;2.92;;
49626;SDS011;35527;54.616;39.786;2022-09-09T19:04:32;5.57;;;2.08;;
49626;SDS011;35527;54.616;39.786;2022-09-09T19:07:35;6.40;;;3.30;;
49626;SDS011;35527;54.616;39.786;2022-09-09T19:10:46;6.55;;;2.75;;
49626;SDS011;35527;54.616;39.786;2022-09-09T19:16:55;7.40;;;3.50;;
49626;SDS011;35527;54.616;39.786;2022-09-09T19:19:59;8.30;;;3.88;;
49626;SDS011;35527;54.616;39.786;2022-09-09T19:23:07;9.20;;;4.13;;
49626;SDS011;35527;54.616;39.786;2022-09-09T19:26:12;7.15;;;3.30;;
49626;SDS011;35527;54.616;39.786;2022-09-09T19:29:23;5.97;;;2.72;;
49626;SDS011;35527;54.616;39.786;2022-09-09T19:32:28;6.13;;;2.75;;
49626;SDS011;35527;54.616;39.786;2022-09-09T19:39:06;8.73;;;4.38;;
49626;SDS011;35527;54.616;39.786;2022-09-09T19:42:10;6.55;;;2.80;;
49626;SDS011;35527;54.616;39.786;2022-09-09T19:45:39;6.13;;;2.38;;
49626;SDS011;35527;54.616;39.786;2022-09-09T19:51:48;4.88;;;1.98;;
49626;SDS011;35527;54.616;39.786;2022-09-09T19:54:51;7.05;;;3.13;;
49626;SDS011;35527;54.616;39.786;2022-09-09T19:57:53;7.25;;;3.28;;
49626;SDS011;35527;54.616;39.786;2022-09-09T20:01:05;9.43;;;4.50;;
49626;SDS011;35527;54.616;39.786;2022-09-09T20:04:16;9.50;;;3.97;;
49626;SDS011;35527;54.616;39.786;2022-09-09T20:07:20;7.57;;;2.35;;
49626;SDS011;35527;54.616;39.786;2022-09-09T20:10:28;7.55;;;2.70;;
49626;SDS011;35527;54.616;39.786;2022-09-09T20:13:35;9.95;;;5.28;;
49626;SDS011;35527;54.616;39.786;2022-09-09T20:16:44;7.43;;;2.78;;
49626;SDS011;35527;54.616;39.786;2022-09-09T20:19:47;6.57;;;2.60;;
49626;SDS011;35527;54.616;39.786;2022-09-09T20:22:50;11.45;;;4.97;;
49626;SDS011;35527;54.616;39.786;2022-09-09T20:25:53;11.95;;;6.00;;
49626;SDS011;35527;54.616;39.786;2022-09-09T20:28:56;10.88;;;4.57;;
49626;SDS011;35527;54.616;39.786;2022-09-09T20:35:05;16.15;;;5.13;;
49626;SDS011;35527;54.616;39.786;2022-09-09T20:38:12;12.02;;;5.25;;
49626;SDS011;35527;54.616;39.786;2022-09-09T20:41:16;13.48;;;4.75;;
49626;SDS011;35527;54.616;39.786;2022-09-09T20:44:24;13.43;;;7.38;;